EST,Max TemperatureF,Mean TemperatureF,Min TemperatureF,Max Dew PointF,MeanDew PointF,Min DewpointF,Max Humidity, Mean Humidity, Min Humidity, Max Sea Level PressureIn, Mean Sea Level PressureIn, Min Sea Level PressureIn, Max VisibilityMiles, Mean VisibilityMiles, Min VisibilityMiles, Max Wind SpeedMPH, Mean Wind SpeedMPH, Max Gust SpeedMPH,PrecipitationIn, CloudCover, Events, WindDirDegrees
2012-12-1,37,32,28,37,34,28,100,94,86,30.19,29.88,29.74,10,5,0,15,8,22,0.04,8,Fog-Rain,169
2012-12-2,37,35,33,36,35,32,100,96,82,29.99,29.88,29.74,9,5,0,13,6,,0.01,8,Fog,282
2012-12-3,48,40,33,48,41,33,100,92,74,29.93,29.64,29.48,10,8,3,32,13,44,0.06,6,Rain,201
2012-12-4,42,32,23,34,20,14,76,69,60,30.28,29.93,29.62,10,9,5,39,27,52,0.00,6,Snow,290
2012-12-5,28,26,23,19,16,13,74,66,61,30.45,30.30,30.04,10,10,2,18,11,23,0.00,5,Snow,123
2012-12-6,37,34,30,34,30,20,100,85,66,30.01,29.77,29.66,10,8,1,26,16,34,0.01,8,Rain-Snow,217
2012-12-7,30,28,26,24,20,18,79,73,69,30.05,29.97,29.85,10,10,10,21,14,29,0.00,8,,294
2012-12-8,25,20,14,18,16,11,91,78,69,30.19,30.09,30.00,10,10,4,9,5,,0.00,5,Snow,353
2012-12-9,30,24,17,28,23,13,100,87,69,30.22,30.03,29.86,10,5,0,15,5,21,0.17,7,Fog-Snow,76
2012-12-10,26,24,21,20,19,16,93,85,78,29.88,29.84,29.78,10,8,2,13,7,16,0.00,8,Snow,64
2012-12-11,24,20,17,20,15,12,96,83,62,29.93,29.81,29.69,10,5,0,15,8,21,0.01,8,Fog-Snow,232
2012-12-12,28,20,12,22,14,7,88,81,69,30.14,30.00,29.88,10,5,1,15,9,,0.02,7,Snow,213
2012-12-13,37,30,24,32,28,22,100,88,60,30.14,29.99,29.94,10,6,0,20,7,25,0.05,8,Fog-Snow,297
2012-12-14,28,26,24,27,24,21,96,91,85,30.25,30.16,30.05,10,10,9,15,4,,0.00,7,,120
2012-12-15,36,32,27,35,32,24,100,93,88,30.09,29.80,29.58,10,6,2,16,12,24,0.10,5,Rain,106
2012-12-16,35,34,32,35,34,30,100,98,93,29.61,29.53,29.49,10,3,0,16,7,21,0.07,8,Fog-Rain-Snow,306
2012-12-17,32,30,27,30,27,22,100,90,80,29.71,29.64,29.57,10,7,1,14,11,21,0.02,8,Snow,298
2012-12-18,30,24,17,25,22,18,100,84,64,29.81,29.73,29.65,10,10,10,5,1,,0.00,8,,277
2012-12-19,30,23,16,25,21,14,92,81,74,30.05,29.94,29.81,10,9,0,9,5,,0.00,7,,242
2012-12-20,33,28,24,31,28,21,96,91,80,30.03,29.76,29.66,10,3,0,29,8,39,0.09,8,Fog-Snow,26
2012-12-21,27,23,19,25,19,14,93,86,78,30.12,29.95,29.70,10,6,1,28,20,38,0.05,8,Snow,341
2012-12-22,27,22,16,22,17,13,92,80,56,30.11,29.99,29.85,10,10,10,16,8,26,0.00,6,,282
2012-12-23,21,18,15,17,13,8,86,79,71,30.04,30.00,29.93,10,8,3,22,14,30,0.00,8,Snow,311
2012-12-24,19,17,15,16,13,10,93,82,74,30.16,30.01,29.93,10,8,2,13,7,,0.00,8,Snow,315
2012-12-25,19,17,15,16,14,12,93,86,79,30.44,30.30,30.12,10,7,2,16,8,,0.00,8,Snow,294
2012-12-26,21,18,15,15,13,10,92,82,72,30.39,30.33,30.24,10,9,4,13,5,,0.01,8,Snow,328
2012-12-27,21,18,15,14,13,10,81,77,71,30.30,30.26,30.19,10,10,8,10,4,,0.00,8,Snow,23
2012-12-28,21,19,17,18,16,14,93,84,75,30.20,30.11,29.99,10,8,2,6,1,,0.00,8,Snow,70
2012-12-29,25,20,15,19,16,13,93,81,68,30.02,29.98,29.91,10,8,2,18,4,24,0.00,7,Snow,273
2012-12-30,21,18,15,16,12,7,86,79,62,30.12,30.03,29.83,10,6,2,13,10,22,0.00,6,Snow,222
2012-12-31,25,18,10,20,9,3,86,79,67,30.14,29.97,29.72,10,3,0,24,16,30,0.00,8,Fog-Snow,311